Flight Track Log - Related Links

Times and Time Zones

All times are in EDT time to prevent confusion due to time zone crossing. See the XSR335 flight status page for this flight to view local times or setup timezone preferences in your user account.

Time Position Orientation Groundspeed Altitude Reporting Facility
EDT Latitude Longitude Course Direction KTS MPH feet Rate Location/Type
Sun 10:10:55 PM 30.1749 -97.6572 179° South 170 196 2,000  Level FlightAware ADS-B
Sun 10:11:08 PM 30.1632 -97.6569 178° South 193 222 2,700 3,143 Climbing FlightAware ADS-B
Sun 10:11:16 PM 30.1560 -97.6574 188° South 201 231 3,100 3,000 Climbing FlightAware ADS-B
Sun 10:11:30 PM 30.1441 -97.6651 224° Southwest 224 258 3,800 2,625 Climbing FlightAware ADS-B
Sun 10:11:48 PM 30.1366 -97.6870 266° West 260 299 4,500 2,727 Climbing FlightAware ADS-B
Sun 10:11:52 PM 30.1370 -97.6927 276° West 262 302 4,800 4,500 Climbing FlightAware ADS-B
Sun 10:11:56 PM 30.1382 -97.6981 285° West 265 305 5,100 3,750 Climbing FlightAware ADS-B
Sun 10:12:00 PM 30.1401 -97.7031 290° West 267 307 5,300 3,429 Climbing FlightAware ADS-B
Sun 10:12:03 PM 30.1423 -97.7070 303° West 274 315 5,500 3,000 Climbing FlightAware ADS-B
Sun 10:12:06 PM 30.1449 -97.7104 311° West 279 321 5,600 2,250 Climbing FlightAware ADS-B
Sun 10:12:11 PM 30.1497 -97.7154 319° Northwest 287 330 5,800 3,000 Climbing FlightAware ADS-B
Sun 10:12:20 PM 30.1590 -97.7240 321° Northwest 292 336 6,300 3,882 Climbing FlightAware ADS-B
Sun 10:12:28 PM 30.1670 -97.7320 318° Northwest 285 328 6,900 4,435 Climbing FlightAware ADS-B
Sun 10:12:43 PM 30.1811 -97.7477 316° Northwest 280 322 8,000 3,600 Climbing FlightAware ADS-B
Sun 10:12:58 PM 30.1958 -97.7638 317° Northwest 294 338 8,700 2,750 Climbing FlightAware ADS-B
Sun 10:13:07 PM 30.2041 -97.7728 317° Northwest 295 339 9,100 2,800 Climbing FlightAware ADS-B (KHPY)
Sun 10:13:13 PM 30.2110 -97.7803 316° Northwest 299 344 9,400 3,000 Climbing FlightAware ADS-B
Sun 10:13:19 PM 30.2166 -97.7865 315° West 296 341 9,700 3,000 Climbing FlightAware ADS-B (KGTU)
Sun 10:13:37 PM 30.2352 -97.8070 317° Northwest 309 356 10,600 3,000 Climbing FlightAware ADS-B
Sun 10:13:41 PM 30.2398 -97.8113 322° Northwest 312 359 10,800 2,571 Climbing FlightAware ADS-B
Sun 10:13:44 PM 30.2435 -97.8141 327° Northwest 313 360 10,900 3,000 Climbing FlightAware ADS-B
Sun 10:13:49 PM 30.2499 -97.8176 337° Northwest 315 362 11,200 3,000 Climbing FlightAware ADS-B
Sun 10:13:50 PM 30.2484 -97.8169 317° Northwest 298 343 11,200 2,400 Level FlightAware ADS-B (KHPY)
Sun 10:13:54 PM 30.2573 -97.8203 344° North 317 365 11,400 1,826 Climbing FlightAware ADS-B
Sun 10:14:13 PM 30.2842 -97.8282 345° North 336 387 11,900 1,400 Climbing FlightAware ADS-B (KGTU)
Sun 10:14:24 PM 30.3021 -97.8341 344° North 347 399 12,100 522 Climbing FlightAware ADS-B
Sun 10:14:36 PM 30.3211 -97.8406 344° North 356 410 12,100  Level FlightAware ADS-B (KHPY)
Sun 10:14:43 PM 30.3322 -97.8444 343° North 355 409 12,100  Level FlightAware ADS-B (KGTU)
Sun 10:14:54 PM 30.3503 -97.8507 343° North 373 429 12,100 667 Level FlightAware ADS-B
Sun 10:15:10 PM 30.3698 -97.8574 344° North 376 433 12,400 1,263 Climbing FlightAware ADS-B (KHPY)
Sun 10:15:13 PM 30.3811 -97.8614 343° North 370 426 12,500 1,600 Climbing FlightAware ADS-B (KGTU)
Sun 10:15:25 PM 30.4021 -97.8686 343° North 378 435 12,800 1,600 Climbing FlightAware ADS-B
Sun 10:15:43 PM 30.4328 -97.8792 343° North 371 427 13,300 1,548 Climbing FlightAware ADS-B (KGTU)
Sun 10:15:56 PM 30.4537 -97.8865 343° North 380 437 13,600 1,364 Climbing FlightAware ADS-B
Sun 10:16:05 PM 30.4696 -97.8913 347° North 381 438 13,800 1,333 Climbing FlightAware ADS-B
Sun 10:16:14 PM 30.4846 -97.8926 360° North 374 430 14,000 1,412 Climbing FlightAware ADS-B (KGTU)
Sun 10:16:22 PM 30.4995 -97.8920 North 381 438 14,200 1,800 Climbing FlightAware ADS-B
Sun 10:16:24 PM 30.5023 -97.8918 North 373 429 14,300 1,500 Climbing FlightAware ADS-B (KGTU)
Sun 10:16:26 PM 30.5070 -97.8916 North 382 440 14,300 1,800 Level FlightAware ADS-B (KHPY)
Sun 10:16:54 PM 30.5555 -97.8908 North 369 425 15,200 1,886 Climbing FlightAware ADS-B (KGTU)
Sun 10:17:01 PM 30.5684 -97.8907 North 376 433 15,400 2,000 Climbing FlightAware ADS-B (KHPY)
Sun 10:17:24 PM 30.6079 -97.8905 North 374 430 16,200 2,000 Climbing FlightAware ADS-B (KGTU)
Sun 10:17:52 PM 30.6553 -97.8901 North 371 427 17,100 2,000 Climbing FlightAware ADS-B (KHPY)
Sun 10:17:54 PM 30.6594 -97.8901 North 370 426 17,200 2,000 Climbing FlightAware ADS-B (KGTU)
Sun 10:18:13 PM 30.6931 -97.8898 North 367 422 17,800 2,000 Climbing FlightAware ADS-B (KGTU)
Sun 10:18:21 PM 30.6992 -97.8898 North 367 422 18,100 2,000 Climbing FlightAware ADS-B (KHPY)
Sun 10:18:43 PM 30.7443 -97.8894 North 355 409 18,800 2,000 Climbing FlightAware ADS-B (KGTU)
Sun 10:19:06 PM 30.7711 -97.8892 North 362 417 19,600 1,935 Climbing FlightAware ADS-B (KHPY)
Sun 10:19:14 PM 30.7956 -97.8889 North 354 407 19,800 1,733 Climbing FlightAware ADS-B (KGTU)
Sun 10:19:51 PM 30.8545 -97.8885 North 352 405 20,900 1,612 Climbing FlightAware ADS-B
Sun 10:20:21 PM 30.9045 -97.8880 North 343 395 21,600 1,400 Climbing FlightAware ADS-B
Sun 10:20:51 PM 30.9485 -97.8877 North 334 384 22,300 1,161 Climbing FlightAware ADS-B (KHPY)
Sun 10:20:52 PM 30.9494 -97.8877 North 334 384 22,200 938 Descending FlightAware ADS-B
Sun 10:21:23 PM 31.0018 -97.8873 North 322 371 22,800 1,105 Climbing FlightAware ADS-B (KGTU)
Sun 10:21:30 PM 31.0121 -97.8872 North 333 383 22,900 387 Climbing FlightAware ADS-B (KHPY)
Sun 10:21:54 PM 31.0493 -97.8869 North 326 375 23,000 194 Climbing FlightAware ADS-B (KGTU)
Sun 10:22:01 PM 31.0560 -97.8868 North 336 387 23,000  Level FlightAware ADS-B (KHPY)
Sun 10:22:32 PM 31.1043 -97.8865 North 344 396 23,000  Level FlightAware ADS-B (KHPY)
Sun 10:22:36 PM 31.1150 -97.8864 North 345 397 23,000  Level FlightAware ADS-B
Sun 10:23:01 PM 31.1564 -97.8860 North 350 403 23,000  Level FlightAware ADS-B (KHPY)
Sun 10:23:06 PM 31.1639 -97.8859 North 349 402 23,000  Level FlightAware ADS-B
Sun 10:23:21 PM 31.1870 -97.8858 North 346 398 23,000  Level FlightAware ADS-B (KHPY)
Sun 10:23:36 PM 31.2116 -97.8836 North 346 398 23,000  Level FlightAware ADS-B
Sun 10:24:01 PM 31.2524 -97.8784 North 351 404 23,000  Level FlightAware ADS-B (KHPY)
Sun 10:24:06 PM 31.2602 -97.8775 North 353 406 23,000  Level FlightAware ADS-B
Sun 10:24:31 PM 31.2956 -97.8733 North 361 415 23,000  Level FlightAware ADS-B (KHPY)
Sun 10:24:36 PM 31.3082 -97.8718 North 364 419 23,000  Level FlightAware ADS-B
Sun 10:24:53 PM 31.3286 -97.8693 North 363 418 23,000  Level FlightAware ADS-B (KHPY)
Sun 10:25:06 PM 31.3591 -97.8656 North 372 428 23,000  Level FlightAware ADS-B
Sun 10:25:37 PM 31.4089 -97.8595 North 379 436 23,000  Level FlightAware ADS-B
Sun 10:26:01 PM 31.4577 -97.8535 North 363 418 23,000  Level FlightAware ADS-B (KHPY)
Sun 10:26:22 PM 31.4907 -97.8495 North 386 444 23,000 -277 Level FlightAware ADS-B
Sun 10:27:06 PM 31.5710 -97.8396 North 385 443 22,700 -811 Descending FlightAware ADS-B
Sun 10:27:36 PM 31.6236 -97.8330 North 382 440 22,000 -1,943 Descending FlightAware ADS-B
Sun 10:28:51 PM 31.7537 -97.8170 North 356 410 19,300 -2,250 Descending FlightAware ADS-B (KHPY)
Sun 10:29:04 PM 31.7744 -97.8145 North 366 421 18,700 -2,200 Descending FlightAware ADS-B
Sun 10:29:21 PM 31.8005 -97.8113 North 345 397 18,200 -1,660 Descending FlightAware ADS-B (KHPY)
Sun 10:29:51 PM 31.8331 -97.8075 North 355 409 17,400 -1,846 Descending Fort Worth Center
Sun 10:30:52 PM 31.9369 -97.7961 North 375 432 15,400 -2,146 Descending Fort Worth Center
Sun 10:31:54 PM 32.0658 -97.7786 North 406 467 13,000 -2,195 Descending Fort Worth Center
Sun 10:32:55 PM 32.1686 -97.7656 North 346 398 10,900 -1,918 Descending Fort Worth Center
Sun 10:33:56 PM 32.2536 -97.7556 North 311 358 9,100 -983 Descending Fort Worth Center
Sun 10:39:50 PM 32.7276 -97.6115 24° Northeast 258 297 4,100 -765 Descending FlightAware ADS-B
Sun 10:40:28 PM 32.7514 -97.5992 24° Northeast 258 297 4,100  Level FlightAware ADS-B
Sun 10:41:08 PM 32.8059 -97.5701 24° Northeast 241 277 4,100  Level FlightAware ADS-B
Sun 10:41:28 PM 32.8276 -97.5585 24° Northeast 236 272 4,100  Level FlightAware ADS-B
Sun 10:41:48 PM 32.8464 -97.5480 31° Northeast 233 268 4,100  Level FlightAware ADS-B
Sun 10:42:09 PM 32.8637 -97.5345 34° Northeast 234 269 4,100 -146 Level FlightAware ADS-B
Sun 10:42:29 PM 32.8824 -97.5169 43° Northeast 232 267 4,000 -615 Descending FlightAware ADS-B
Sun 10:42:48 PM 32.8981 -97.4993 47° Northeast 234 269 3,700 -900 Descending FlightAware ADS-B
Sun 10:43:09 PM 32.9055 -97.4791 80° East 224 258 3,400 -1,024 Descending FlightAware ADS-B
Sun 10:43:29 PM 32.9095 -97.4523 80° East 225 259 3,000 -1,350 Descending FlightAware ADS-B
Sun 10:43:49 PM 32.9121 -97.4273 90° East 225 259 2,500 -1,200 Descending FlightAware ADS-B
Sun 10:44:09 PM 32.9096 -97.4024 94° East 222 255 2,200 -720 Descending FlightAware ADS-B
Sun 10:44:14 PM 32.9115 -97.4140 106° East 210 242 2,200 -462 Level FlightAware ADS-B
Sun 10:44:22 PM 32.9060 -97.3926 117° Southeast 194 223 2,100 -400 Descending FlightAware ADS-B
Sun 10:44:29 PM 32.9010 -97.3848 130° Southeast 168 193 2,100  Level FlightAware ADS-B
Sun 10:44:42 PM 32.8961 -97.3786 135° Southeast 165 190 2,100 -316 Level FlightAware ADS-B
Sun 10:44:48 PM 32.8961 -97.3786 153° Southeast 157 181 2,000 -571 Descending FlightAware ADS-B
Sun 10:45:03 PM 32.8851 -97.3718 170° South 145 167 1,900 -732 Descending FlightAware ADS-B
Sun 10:45:29 PM 32.8641 -97.3681 173° South 130 150 1,500 -783 Descending FlightAware ADS-B
Sun 10:45:49 PM 32.8548 -97.3666 172° South 125 144 1,300 -600 Descending FlightAware ADS-B
Sun 10:46:09 PM 32.8412 -97.3644 173° South 115 132 1,100 -615 Descending FlightAware ADS-B
Sun 10:46:28 PM 32.8325 -97.3629 172° South 108 124 900 -632 Descending FlightAware ADS-B

Login

Don't have an account? Register now (free) for customized features, flight alerts, and more!